sensor_id;sensor_type;location;lat;lon;timestamp;P1;durP1;ratioP1;P2;durP2;ratioP2
20896;SDS011;10608;42.600;23.398;2023-08-01T00:01:22;80.80;;;77.33;;
20896;SDS011;10608;42.600;23.398;2023-08-01T00:03:47;87.17;;;83.47;;
20896;SDS011;10608;42.600;23.398;2023-08-01T00:06:12;82.57;;;79.07;;
20896;SDS011;10608;42.600;23.398;2023-08-01T00:08:38;75.30;;;71.90;;
20896;SDS011;10608;42.600;23.398;2023-08-01T00:11:03;71.77;;;68.67;;
20896;SDS011;10608;42.600;23.398;2023-08-01T00:13:29;58.37;;;55.67;;
20896;SDS011;10608;42.600;23.398;2023-08-01T00:15:54;56.40;;;53.90;;
20896;SDS011;10608;42.600;23.398;2023-08-01T00:18:20;50.60;;;48.37;;
20896;SDS011;10608;42.600;23.398;2023-08-01T00:20:45;61.30;;;58.53;;
20896;SDS011;10608;42.600;23.398;2023-08-01T00:23:10;66.30;;;63.30;;
20896;SDS011;10608;42.600;23.398;2023-08-01T00:25:36;74.83;;;71.57;;
20896;SDS011;10608;42.600;23.398;2023-08-01T00:28:01;78.10;;;74.60;;
20896;SDS011;10608;42.600;23.398;2023-08-01T00:30:27;85.70;;;81.90;;
20896;SDS011;10608;42.600;23.398;2023-08-01T00:32:52;97.73;;;93.37;;
20896;SDS011;10608;42.600;23.398;2023-08-01T00:35:17;95.30;;;91.10;;
20896;SDS011;10608;42.600;23.398;2023-08-01T00:37:43;92.93;;;88.87;;
20896;SDS011;10608;42.600;23.398;2023-08-01T00:40:08;101.13;;;96.60;;
20896;SDS011;10608;42.600;23.398;2023-08-01T00:42:35;112.27;;;107.37;;
20896;SDS011;10608;42.600;23.398;2023-08-01T00:45:02;118.40;;;113.40;;
20896;SDS011;10608;42.600;23.398;2023-08-01T00:47:28;99.87;;;95.47;;
20896;SDS011;10608;42.600;23.398;2023-08-01T00:49:54;100.57;;;96.17;;
20896;SDS011;10608;42.600;23.398;2023-08-01T00:52:20;93.37;;;89.27;;
20896;SDS011;10608;42.600;23.398;2023-08-01T00:54:46;92.63;;;88.70;;
20896;SDS011;10608;42.600;23.398;2023-08-01T00:57:11;95.10;;;90.97;;
20896;SDS011;10608;42.600;23.398;2023-08-01T00:59:37;92.97;;;89.00;;
20896;SDS011;10608;42.600;23.398;2023-08-01T01:02:02;85.73;;;82.03;;
20896;SDS011;10608;42.600;23.398;2023-08-01T01:04:29;87.83;;;84.03;;
20896;SDS011;10608;42.600;23.398;2023-08-01T01:07:00;87.30;;;83.53;;
20896;SDS011;10608;42.600;23.398;2023-08-01T01:09:29;93.17;;;89.03;;
20896;SDS011;10608;42.600;23.398;2023-08-01T01:11:58;101.43;;;97.13;;
20896;SDS011;10608;42.600;23.398;2023-08-01T01:14:25;97.10;;;92.93;;
20896;SDS011;10608;42.600;23.398;2023-08-01T01:16:51;90.63;;;86.77;;
20896;SDS011;10608;42.600;23.398;2023-08-01T01:19:17;96.20;;;92.20;;
20896;SDS011;10608;42.600;23.398;2023-08-01T01:21:42;85.80;;;82.13;;
20896;SDS011;10608;42.600;23.398;2023-08-01T01:24:09;78.73;;;75.37;;
20896;SDS011;10608;42.600;23.398;2023-08-01T01:26:36;78.40;;;75.07;;
20896;SDS011;10608;42.600;23.398;2023-08-01T01:29:03;78.33;;;75.00;;
20896;SDS011;10608;42.600;23.398;2023-08-01T01:31:31;71.83;;;68.53;;
20896;SDS011;10608;42.600;23.398;2023-08-01T01:33:57;72.50;;;69.40;;
20896;SDS011;10608;42.600;23.398;2023-08-01T01:36:23;73.33;;;70.13;;
20896;SDS011;10608;42.600;23.398;2023-08-01T01:38:49;69.70;;;66.67;;
20896;SDS011;10608;42.600;23.398;2023-08-01T01:41:14;66.67;;;63.73;;
20896;SDS011;10608;42.600;23.398;2023-08-01T01:43:40;77.27;;;73.83;;
20896;SDS011;10608;42.600;23.398;2023-08-01T01:46:06;67.30;;;64.30;;
20896;SDS011;10608;42.600;23.398;2023-08-01T01:48:31;72.00;;;68.80;;
20896;SDS011;10608;42.600;23.398;2023-08-01T01:50:56;69.77;;;66.77;;
20896;SDS011;10608;42.600;23.398;2023-08-01T01:53:22;74.57;;;71.37;;
20896;SDS011;10608;42.600;23.398;2023-08-01T01:55:47;71.63;;;68.53;;
20896;SDS011;10608;42.600;23.398;2023-08-01T01:58:12;77.87;;;74.43;;
20896;SDS011;10608;42.600;23.398;2023-08-01T02:00:38;74.10;;;70.90;;
20896;SDS011;10608;42.600;23.398;2023-08-01T02:03:03;59.13;;;56.50;;
20896;SDS011;10608;42.600;23.398;2023-08-01T02:05:29;66.93;;;63.70;;
20896;SDS011;10608;42.600;23.398;2023-08-01T02:07:55;69.13;;;66.10;;
20896;SDS011;10608;42.600;23.398;2023-08-01T02:10:21;75.50;;;72.20;;
20896;SDS011;10608;42.600;23.398;2023-08-01T02:12:46;66.53;;;63.67;;
20896;SDS011;10608;42.600;23.398;2023-08-01T02:15:11;62.60;;;59.30;;
20896;SDS011;10608;42.600;23.398;2023-08-01T02:17:37;54.20;;;51.83;;
20896;SDS011;10608;42.600;23.398;2023-08-01T02:20:02;62.03;;;59.27;;
20896;SDS011;10608;42.600;23.398;2023-08-01T02:22:28;57.07;;;54.53;;
20896;SDS011;10608;42.600;23.398;2023-08-01T02:24:53;63.57;;;60.80;;
20896;SDS011;10608;42.600;23.398;2023-08-01T02:27:19;68.90;;;65.90;;
20896;SDS011;10608;42.600;23.398;2023-08-01T02:29:44;66.23;;;63.40;;
20896;SDS011;10608;42.600;23.398;2023-08-01T02:32:10;67.97;;;64.97;;
20896;SDS011;10608;42.600;23.398;2023-08-01T02:34:35;67.73;;;64.67;;
20896;SDS011;10608;42.600;23.398;2023-08-01T02:37:00;73.37;;;70.00;;
20896;SDS011;10608;42.600;23.398;2023-08-01T02:39:26;72.80;;;69.63;;
20896;SDS011;10608;42.600;23.398;2023-08-01T02:41:51;68.10;;;65.10;;
20896;SDS011;10608;42.600;23.398;2023-08-01T02:44:16;75.10;;;71.90;;
20896;SDS011;10608;42.600;23.398;2023-08-01T02:46:42;69.37;;;66.30;;
20896;SDS011;10608;42.600;23.398;2023-08-01T02:49:07;73.70;;;70.53;;
20896;SDS011;10608;42.600;23.398;2023-08-01T02:51:33;69.00;;;66.00;;
20896;SDS011;10608;42.600;23.398;2023-08-01T02:53:58;72.10;;;68.93;;
20896;SDS011;10608;42.600;23.398;2023-08-01T02:56:23;71.87;;;68.67;;
20896;SDS011;10608;42.600;23.398;2023-08-01T02:58:49;74.67;;;71.37;;
20896;SDS011;10608;42.600;23.398;2023-08-01T03:01:16;70.00;;;66.93;;
20896;SDS011;10608;42.600;23.398;2023-08-01T03:03:42;71.20;;;68.00;;
20896;SDS011;10608;42.600;23.398;2023-08-01T03:06:07;72.23;;;68.97;;
20896;SDS011;10608;42.600;23.398;2023-08-01T03:08:33;77.13;;;73.50;;
20896;SDS011;10608;42.600;23.398;2023-08-01T03:10:59;84.73;;;80.73;;
20896;SDS011;10608;42.600;23.398;2023-08-01T03:13:24;85.07;;;81.20;;
20896;SDS011;10608;42.600;23.398;2023-08-01T03:15:49;95.40;;;91.00;;
20896;SDS011;10608;42.600;23.398;2023-08-01T03:18:15;99.47;;;94.97;;
20896;SDS011;10608;42.600;23.398;2023-08-01T03:20:40;104.67;;;100.00;;
20896;SDS011;10608;42.600;23.398;2023-08-01T03:23:06;104.00;;;99.47;;
20896;SDS011;10608;42.600;23.398;2023-08-01T03:25:31;100.17;;;95.83;;
20896;SDS011;10608;42.600;23.398;2023-08-01T03:27:57;91.17;;;87.27;;
20896;SDS011;10608;42.600;23.398;2023-08-01T03:30:22;81.07;;;77.57;;
20896;SDS011;10608;42.600;23.398;2023-08-01T03:32:48;75.73;;;72.40;;
20896;SDS011;10608;42.600;23.398;2023-08-01T03:35:13;79.23;;;75.70;;
20896;SDS011;10608;42.600;23.398;2023-08-01T03:37:39;79.87;;;76.23;;
20896;SDS011;10608;42.600;23.398;2023-08-01T03:40:05;89.87;;;85.97;;
20896;SDS011;10608;42.600;23.398;2023-08-01T03:42:34;86.63;;;82.60;;
20896;SDS011;10608;42.600;23.398;2023-08-01T03:45:00;96.33;;;92.20;;
20896;SDS011;10608;42.600;23.398;2023-08-01T03:47:26;104.77;;;100.23;;
20896;SDS011;10608;42.600;23.398;2023-08-01T03:49:51;112.87;;;107.87;;
20896;SDS011;10608;42.600;23.398;2023-08-01T03:52:16;122.70;;;117.13;;
20896;SDS011;10608;42.600;23.398;2023-08-01T03:54:42;96.87;;;92.20;;
20896;SDS011;10608;42.600;23.398;2023-08-01T03:57:07;106.07;;;101.33;;
20896;SDS011;10608;42.600;23.398;2023-08-01T03:59:32;122.17;;;116.77;;
20896;SDS011;10608;42.600;23.398;2023-08-01T04:01:58;176.23;;;168.47;;
20896;SDS011;10608;42.600;23.398;2023-08-01T04:04:23;122.40;;;117.00;;
20896;SDS011;10608;42.600;23.398;2023-08-01T04:06:49;109.20;;;104.37;;
20896;SDS011;10608;42.600;23.398;2023-08-01T04:09:14;92.90;;;88.67;;
20896;SDS011;10608;42.600;23.398;2023-08-01T04:11:39;80.67;;;77.13;;
20896;SDS011;10608;42.600;23.398;2023-08-01T04:14:05;59.30;;;56.67;;
20896;SDS011;10608;42.600;23.398;2023-08-01T04:16:30;63.77;;;60.93;;
20896;SDS011;10608;42.600;23.398;2023-08-01T04:18:56;40.63;;;38.87;;
20896;SDS011;10608;42.600;23.398;2023-08-01T04:21:21;40.07;;;38.30;;
20896;SDS011;10608;42.600;23.398;2023-08-01T04:23:46;26.93;;;25.73;;
20896;SDS011;10608;42.600;23.398;2023-08-01T04:26:12;24.10;;;23.00;;
20896;SDS011;10608;42.600;23.398;2023-08-01T04:28:37;28.33;;;27.03;;
20896;SDS011;10608;42.600;23.398;2023-08-01T04:31:03;36.23;;;34.53;;
20896;SDS011;10608;42.600;23.398;2023-08-01T04:33:28;34.50;;;33.00;;
20896;SDS011;10608;42.600;23.398;2023-08-01T04:35:54;30.20;;;28.87;;
20896;SDS011;10608;42.600;23.398;2023-08-01T04:38:19;25.03;;;23.93;;
20896;SDS011;10608;42.600;23.398;2023-08-01T04:40:44;28.83;;;27.57;;
20896;SDS011;10608;42.600;23.398;2023-08-01T04:43:11;32.83;;;31.33;;
20896;SDS011;10608;42.600;23.398;2023-08-01T04:45:37;40.23;;;38.47;;
20896;SDS011;10608;42.600;23.398;2023-08-01T04:48:02;51.73;;;49.53;;
20896;SDS011;10608;42.600;23.398;2023-08-01T04:50:28;57.87;;;55.43;;
20896;SDS011;10608;42.600;23.398;2023-08-01T04:52:53;50.13;;;48.00;;
20896;SDS011;10608;42.600;23.398;2023-08-01T04:55:19;29.80;;;28.50;;
20896;SDS011;10608;42.600;23.398;2023-08-01T04:57:44;22.60;;;21.60;;
20896;SDS011;10608;42.600;23.398;2023-08-01T05:00:10;20.63;;;19.63;;
20896;SDS011;10608;42.600;23.398;2023-08-01T05:02:36;20.83;;;19.87;;
20896;SDS011;10608;42.600;23.398;2023-08-01T05:05:02;21.40;;;20.40;;
20896;SDS011;10608;42.600;23.398;2023-08-01T05:07:28;20.60;;;19.67;;
20896;SDS011;10608;42.600;23.398;2023-08-01T05:09:54;23.93;;;22.90;;
20896;SDS011;10608;42.600;23.398;2023-08-01T05:12:19;23.37;;;22.37;;
20896;SDS011;10608;42.600;23.398;2023-08-01T05:14:45;22.73;;;21.73;;
20896;SDS011;10608;42.600;23.398;2023-08-01T05:17:10;22.63;;;21.53;;
20896;SDS011;10608;42.600;23.398;2023-08-01T05:19:36;19.97;;;19.07;;
20896;SDS011;10608;42.600;23.398;2023-08-01T05:22:01;17.10;;;16.20;;
20896;SDS011;10608;42.600;23.398;2023-08-01T05:24:26;17.03;;;16.13;;
20896;SDS011;10608;42.600;23.398;2023-08-01T05:26:52;18.83;;;17.77;;
20896;SDS011;10608;42.600;23.398;2023-08-01T05:29:17;12.47;;;11.87;;
20896;SDS011;10608;42.600;23.398;2023-08-01T05:31:43;12.33;;;11.73;;
20896;SDS011;10608;42.600;23.398;2023-08-01T05:34:08;12.33;;;11.73;;
20896;SDS011;10608;42.600;23.398;2023-08-01T05:36:34;14.30;;;13.60;;
20896;SDS011;10608;42.600;23.398;2023-08-01T05:38:59;14.53;;;13.83;;
20896;SDS011;10608;42.600;23.398;2023-08-01T05:41:24;16.90;;;16.10;;
20896;SDS011;10608;42.600;23.398;2023-08-01T05:43:50;17.93;;;17.03;;
20896;SDS011;10608;42.600;23.398;2023-08-01T05:46:15;16.47;;;15.67;;
20896;SDS011;10608;42.600;23.398;2023-08-01T05:48:41;11.00;;;10.50;;
20896;SDS011;10608;42.600;23.398;2023-08-01T05:51:06;10.17;;;9.37;;
20896;SDS011;10608;42.600;23.398;2023-08-01T05:53:32;14.13;;;13.43;;
20896;SDS011;10608;42.600;23.398;2023-08-01T05:55:57;12.77;;;12.17;;
20896;SDS011;10608;42.600;23.398;2023-08-01T05:58:23;13.20;;;12.60;;
20896;SDS011;10608;42.600;23.398;2023-08-01T06:00:48;12.53;;;11.83;;
20896;SDS011;10608;42.600;23.398;2023-08-01T06:03:14;12.50;;;11.90;;
20896;SDS011;10608;42.600;23.398;2023-08-01T06:05:39;14.73;;;13.83;;
20896;SDS011;10608;42.600;23.398;2023-08-01T06:08:08;13.97;;;13.27;;
20896;SDS011;10608;42.600;23.398;2023-08-01T06:10:36;12.50;;;11.90;;
20896;SDS011;10608;42.600;23.398;2023-08-01T06:13:02;14.80;;;14.00;;
20896;SDS011;10608;42.600;23.398;2023-08-01T06:15:27;14.87;;;14.10;;
20896;SDS011;10608;42.600;23.398;2023-08-01T06:17:53;17.30;;;16.43;;
20896;SDS011;10608;42.600;23.398;2023-08-01T06:20:18;16.43;;;15.73;;
20896;SDS011;10608;42.600;23.398;2023-08-01T06:22:44;20.33;;;19.33;;
20896;SDS011;10608;42.600;23.398;2023-08-01T06:25:09;20.10;;;19.20;;
20896;SDS011;10608;42.600;23.398;2023-08-01T06:27:35;19.27;;;18.37;;
20896;SDS011;10608;42.600;23.398;2023-08-01T06:30:00;22.60;;;21.53;;
20896;SDS011;10608;42.600;23.398;2023-08-01T06:32:26;20.80;;;19.83;;
20896;SDS011;10608;42.600;23.398;2023-08-01T06:34:51;19.23;;;18.03;;
20896;SDS011;10608;42.600;23.398;2023-08-01T06:37:17;13.77;;;12.47;;
20896;SDS011;10608;42.600;23.398;2023-08-01T06:39:42;13.73;;;12.97;;
20896;SDS011;10608;42.600;23.398;2023-08-01T06:42:07;11.30;;;10.70;;
20896;SDS011;10608;42.600;23.398;2023-08-01T06:44:33;17.53;;;16.73;;
20896;SDS011;10608;42.600;23.398;2023-08-01T06:46:58;16.60;;;15.87;;
20896;SDS011;10608;42.600;23.398;2023-08-01T06:49:24;16.23;;;15.53;;
20896;SDS011;10608;42.600;23.398;2023-08-01T06:51:49;16.80;;;15.90;;
20896;SDS011;10608;42.600;23.398;2023-08-01T06:54:15;15.53;;;14.53;;
20896;SDS011;10608;42.600;23.398;2023-08-01T06:56:40;20.30;;;19.10;;
20896;SDS011;10608;42.600;23.398;2023-08-01T06:59:12;17.00;;;15.93;;
20896;SDS011;10608;42.600;23.398;2023-08-01T07:01:37;13.93;;;13.23;;
20896;SDS011;10608;42.600;23.398;2023-08-01T07:04:05;16.73;;;15.93;;
20896;SDS011;10608;42.600;23.398;2023-08-01T07:06:31;14.60;;;13.83;;
20896;SDS011;10608;42.600;23.398;2023-08-01T07:08:56;12.93;;;12.33;;
20896;SDS011;10608;42.600;23.398;2023-08-01T07:11:22;12.95;;;12.15;;
20896;SDS011;10608;42.600;23.398;2023-08-01T07:13:48;14.55;;;13.82;;
20896;SDS011;10608;42.600;23.398;2023-08-01T07:16:13;14.32;;;13.63;;
20896;SDS011;10608;42.600;23.398;2023-08-01T07:18:39;13.43;;;12.73;;
20896;SDS011;10608;42.600;23.398;2023-08-01T07:21:05;10.00;;;9.37;;
20896;SDS011;10608;42.600;23.398;2023-08-01T07:23:31;9.57;;;8.97;;
20896;SDS011;10608;42.600;23.398;2023-08-01T07:25:58;10.03;;;9.43;;
20896;SDS011;10608;42.600;23.398;2023-08-01T07:28:23;11.63;;;11.03;;
20896;SDS011;10608;42.600;23.398;2023-08-01T07:30:57;12.87;;;12.10;;
20896;SDS011;10608;42.600;23.398;2023-08-01T07:33:23;11.53;;;10.47;;
20896;SDS011;10608;42.600;23.398;2023-08-01T07:35:49;12.00;;;11.20;;
20896;SDS011;10608;42.600;23.398;2023-08-01T07:38:14;11.80;;;10.93;;
20896;SDS011;10608;42.600;23.398;2023-08-01T07:40:39;12.33;;;11.63;;
20896;SDS011;10608;42.600;23.398;2023-08-01T07:43:05;10.17;;;9.67;;
20896;SDS011;10608;42.600;23.398;2023-08-01T07:45:32;11.43;;;10.83;;
20896;SDS011;10608;42.600;23.398;2023-08-01T07:47:59;12.20;;;11.40;;
20896;SDS011;10608;42.600;23.398;2023-08-01T07:50:25;11.83;;;11.13;;
20896;SDS011;10608;42.600;23.398;2023-08-01T07:52:51;18.73;;;17.83;;
20896;SDS011;10608;42.600;23.398;2023-08-01T07:55:16;18.17;;;17.07;;
20896;SDS011;10608;42.600;23.398;2023-08-01T07:57:43;13.83;;;13.07;;
20896;SDS011;10608;42.600;23.398;2023-08-01T08:00:09;11.30;;;10.70;;
20896;SDS011;10608;42.600;23.398;2023-08-01T08:02:35;10.57;;;10.07;;
20896;SDS011;10608;42.600;23.398;2023-08-01T08:05:01;10.83;;;10.17;;
20896;SDS011;10608;42.600;23.398;2023-08-01T08:07:26;10.87;;;10.30;;
20896;SDS011;10608;42.600;23.398;2023-08-01T08:09:52;9.90;;;9.20;;
20896;SDS011;10608;42.600;23.398;2023-08-01T08:12:20;8.90;;;8.17;;
20896;SDS011;10608;42.600;23.398;2023-08-01T08:14:45;8.80;;;8.30;;
20896;SDS011;10608;42.600;23.398;2023-08-01T08:17:11;10.23;;;9.63;;
20896;SDS011;10608;42.600;23.398;2023-08-01T08:19:37;10.97;;;10.17;;
20896;SDS011;10608;42.600;23.398;2023-08-01T08:22:02;10.07;;;9.47;;
20896;SDS011;10608;42.600;23.398;2023-08-01T08:24:28;10.73;;;10.03;;
20896;SDS011;10608;42.600;23.398;2023-08-01T08:26:54;9.80;;;9.20;;
20896;SDS011;10608;42.600;23.398;2023-08-01T08:29:20;10.80;;;10.20;;
20896;SDS011;10608;42.600;23.398;2023-08-01T08:31:45;11.20;;;10.40;;
20896;SDS011;10608;42.600;23.398;2023-08-01T08:34:10;10.90;;;10.37;;
20896;SDS011;10608;42.600;23.398;2023-08-01T08:36:36;10.63;;;10.07;;
20896;SDS011;10608;42.600;23.398;2023-08-01T08:39:01;11.48;;;10.88;;
20896;SDS011;10608;42.600;23.398;2023-08-01T08:41:28;12.87;;;12.27;;
20896;SDS011;10608;42.600;23.398;2023-08-01T08:43:57;13.50;;;12.80;;
20896;SDS011;10608;42.600;23.398;2023-08-01T08:46:28;12.63;;;11.93;;
20896;SDS011;10608;42.600;23.398;2023-08-01T08:48:55;11.57;;;10.73;;
20896;SDS011;10608;42.600;23.398;2023-08-01T08:51:22;10.57;;;10.07;;
20896;SDS011;10608;42.600;23.398;2023-08-01T08:53:51;13.38;;;12.23;;
20896;SDS011;10608;42.600;23.398;2023-08-01T08:56:19;15.65;;;14.95;;
20896;SDS011;10608;42.600;23.398;2023-08-01T08:58:45;15.07;;;14.18;;
20896;SDS011;10608;42.600;23.398;2023-08-01T09:01:12;13.75;;;12.90;;
20896;SDS011;10608;42.600;23.398;2023-08-01T09:03:38;11.50;;;10.65;;
20896;SDS011;10608;42.600;23.398;2023-08-01T09:06:12;11.50;;;10.93;;
20896;SDS011;10608;42.600;23.398;2023-08-01T09:08:39;13.57;;;12.88;;
20896;SDS011;10608;42.600;23.398;2023-08-01T09:11:05;13.68;;;12.98;;
20896;SDS011;10608;42.600;23.398;2023-08-01T09:13:31;12.18;;;11.43;;
20896;SDS011;10608;42.600;23.398;2023-08-01T09:15:56;11.82;;;11.13;;
20896;SDS011;10608;42.600;23.398;2023-08-01T09:18:22;11.00;;;10.48;;
20896;SDS011;10608;42.600;23.398;2023-08-01T09:20:48;10.80;;;10.20;;
20896;SDS011;10608;42.600;23.398;2023-08-01T09:23:15;9.18;;;8.68;;
20896;SDS011;10608;42.600;23.398;2023-08-01T09:25:41;10.70;;;10.10;;
20896;SDS011;10608;42.600;23.398;2023-08-01T09:30:49;10.85;;;10.25;;
20896;SDS011;10608;42.600;23.398;2023-08-01T09:33:16;9.77;;;9.07;;
20896;SDS011;10608;42.600;23.398;2023-08-01T09:35:42;9.23;;;8.63;;
20896;SDS011;10608;42.600;23.398;2023-08-01T09:38:11;9.65;;;9.15;;
20896;SDS011;10608;42.600;23.398;2023-08-01T09:40:38;9.07;;;8.48;;
20896;SDS011;10608;42.600;23.398;2023-08-01T09:43:05;9.40;;;8.80;;
20896;SDS011;10608;42.600;23.398;2023-08-01T09:45:30;11.15;;;10.55;;
20896;SDS011;10608;42.600;23.398;2023-08-01T09:47:56;10.00;;;9.40;;
20896;SDS011;10608;42.600;23.398;2023-08-01T09:50:22;10.10;;;9.50;;
20896;SDS011;10608;42.600;23.398;2023-08-01T09:52:48;10.10;;;9.38;;
20896;SDS011;10608;42.600;23.398;2023-08-01T09:55:26;10.52;;;9.93;;
20896;SDS011;10608;42.600;23.398;2023-08-01T09:57:57;14.70;;;14.00;;
20896;SDS011;10608;42.600;23.398;2023-08-01T10:00:27;16.83;;;15.93;;
20896;SDS011;10608;42.600;23.398;2023-08-01T10:02:57;16.13;;;13.85;;
20896;SDS011;10608;42.600;23.398;2023-08-01T10:05:27;8.75;;;8.25;;
20896;SDS011;10608;42.600;23.398;2023-08-01T10:07:55;9.60;;;9.10;;
20896;SDS011;10608;42.600;23.398;2023-08-01T10:10:26;10.17;;;9.63;;
20896;SDS011;10608;42.600;23.398;2023-08-01T10:12:53;12.20;;;11.60;;
20896;SDS011;10608;42.600;23.398;2023-08-01T10:15:21;9.20;;;8.60;;
20896;SDS011;10608;42.600;23.398;2023-08-01T10:17:46;10.30;;;9.70;;
20896;SDS011;10608;42.600;23.398;2023-08-01T10:20:12;12.20;;;11.50;;
20896;SDS011;10608;42.600;23.398;2023-08-01T10:22:40;15.13;;;14.23;;
20896;SDS011;10608;42.600;23.398;2023-08-01T10:25:07;22.10;;;20.33;;
20896;SDS011;10608;42.600;23.398;2023-08-01T10:27:35;23.27;;;22.07;;
20896;SDS011;10608;42.600;23.398;2023-08-01T10:30:02;28.03;;;26.73;;
20896;SDS011;10608;42.600;23.398;2023-08-01T10:32:32;30.87;;;29.40;;
20896;SDS011;10608;42.600;23.398;2023-08-01T10:34:59;21.53;;;19.53;;
20896;SDS011;10608;42.600;23.398;2023-08-01T10:37:25;14.07;;;13.37;;
20896;SDS011;10608;42.600;23.398;2023-08-01T10:40:00;16.00;;;15.20;;
20896;SDS011;10608;42.600;23.398;2023-08-01T10:42:25;15.17;;;14.47;;
20896;SDS011;10608;42.600;23.398;2023-08-01T10:45:02;15.27;;;14.40;;
20896;SDS011;10608;42.600;23.398;2023-08-01T10:47:27;24.40;;;23.20;;
20896;SDS011;10608;42.600;23.398;2023-08-01T10:49:53;25.90;;;24.60;;
20896;SDS011;10608;42.600;23.398;2023-08-01T10:52:19;26.37;;;25.17;;
20896;SDS011;10608;42.600;23.398;2023-08-01T10:57:28;16.87;;;16.07;;
20896;SDS011;10608;42.600;23.398;2023-08-01T10:59:56;16.67;;;15.80;;
20896;SDS011;10608;42.600;23.398;2023-08-01T11:02:26;17.03;;;16.13;;
20896;SDS011;10608;42.600;23.398;2023-08-01T11:07:22;15.87;;;14.87;;
20896;SDS011;10608;42.600;23.398;2023-08-01T11:09:48;13.67;;;12.67;;
20896;SDS011;10608;42.600;23.398;2023-08-01T11:12:13;12.43;;;11.77;;
20896;SDS011;10608;42.600;23.398;2023-08-01T11:14:39;13.33;;;12.17;;
20896;SDS011;10608;42.600;23.398;2023-08-01T11:17:04;14.80;;;14.03;;
20896;SDS011;10608;42.600;23.398;2023-08-01T11:19:30;14.53;;;13.47;;
20896;SDS011;10608;42.600;23.398;2023-08-01T11:21:56;16.10;;;15.00;;
20896;SDS011;10608;42.600;23.398;2023-08-01T11:24:22;15.33;;;14.43;;
20896;SDS011;10608;42.600;23.398;2023-08-01T11:26:50;15.93;;;15.10;;
20896;SDS011;10608;42.600;23.398;2023-08-01T11:29:17;14.13;;;13.27;;
20896;SDS011;10608;42.600;23.398;2023-08-01T11:31:53;14.00;;;13.30;;
20896;SDS011;10608;42.600;23.398;2023-08-01T11:34:23;14.33;;;13.33;;
20896;SDS011;10608;42.600;23.398;2023-08-01T11:36:48;14.57;;;13.77;;
20896;SDS011;10608;42.600;23.398;2023-08-01T11:39:15;16.07;;;15.20;;
20896;SDS011;10608;42.600;23.398;2023-08-01T11:41:41;17.43;;;16.53;;
20896;SDS011;10608;42.600;23.398;2023-08-01T11:44:07;14.43;;;13.73;;
20896;SDS011;10608;42.600;23.398;2023-08-01T11:46:34;17.43;;;16.43;;
20896;SDS011;10608;42.600;23.398;2023-08-01T11:49:03;23.00;;;21.80;;
20896;SDS011;10608;42.600;23.398;2023-08-01T11:51:30;15.47;;;14.67;;
20896;SDS011;10608;42.600;23.398;2023-08-01T11:54:04;16.10;;;15.23;;
20896;SDS011;10608;42.600;23.398;2023-08-01T11:56:30;20.33;;;18.70;;
20896;SDS011;10608;42.600;23.398;2023-08-01T11:58:56;14.63;;;13.80;;
20896;SDS011;10608;42.600;23.398;2023-08-01T12:01:22;15.60;;;14.70;;
20896;SDS011;10608;42.600;23.398;2023-08-01T12:03:51;22.93;;;21.63;;
20896;SDS011;10608;42.600;23.398;2023-08-01T12:06:19;23.57;;;22.37;;
20896;SDS011;10608;42.600;23.398;2023-08-01T12:08:48;20.47;;;19.20;;
20896;SDS011;10608;42.600;23.398;2023-08-01T12:11:21;18.97;;;17.90;;
20896;SDS011;10608;42.600;23.398;2023-08-01T12:14:00;17.33;;;16.43;;
20896;SDS011;10608;42.600;23.398;2023-08-01T12:16:26;16.83;;;15.93;;
20896;SDS011;10608;42.600;23.398;2023-08-01T12:18:52;15.83;;;14.93;;
20896;SDS011;10608;42.600;23.398;2023-08-01T12:21:17;16.00;;;15.13;;
20896;SDS011;10608;42.600;23.398;2023-08-01T12:23:42;15.37;;;14.57;;
20896;SDS011;10608;42.600;23.398;2023-08-01T12:26:08;15.70;;;14.90;;
20896;SDS011;10608;42.600;23.398;2023-08-01T12:28:34;16.60;;;15.80;;
20896;SDS011;10608;42.600;23.398;2023-08-01T12:31:00;17.17;;;16.37;;
20896;SDS011;10608;42.600;23.398;2023-08-01T12:33:25;15.00;;;14.20;;
20896;SDS011;10608;42.600;23.398;2023-08-01T12:35:50;13.90;;;13.10;;
20896;SDS011;10608;42.600;23.398;2023-08-01T12:38:16;12.73;;;12.13;;
20896;SDS011;10608;42.600;23.398;2023-08-01T12:40:41;12.57;;;11.87;;
20896;SDS011;10608;42.600;23.398;2023-08-01T12:43:07;12.73;;;12.03;;
20896;SDS011;10608;42.600;23.398;2023-08-01T12:45:32;14.00;;;13.00;;
20896;SDS011;10608;42.600;23.398;2023-08-01T12:47:58;12.67;;;12.07;;
20896;SDS011;10608;42.600;23.398;2023-08-01T12:50:23;15.70;;;14.90;;
20896;SDS011;10608;42.600;23.398;2023-08-01T12:52:49;14.73;;;14.03;;
20896;SDS011;10608;42.600;23.398;2023-08-01T12:55:14;13.07;;;12.27;;
20896;SDS011;10608;42.600;23.398;2023-08-01T12:57:39;15.03;;;14.23;;
20896;SDS011;10608;42.600;23.398;2023-08-01T13:00:05;16.37;;;15.37;;
20896;SDS011;10608;42.600;23.398;2023-08-01T13:02:31;21.93;;;20.63;;
20896;SDS011;10608;42.600;23.398;2023-08-01T13:04:56;18.47;;;17.57;;
20896;SDS011;10608;42.600;23.398;2023-08-01T13:07:22;14.37;;;13.50;;
20896;SDS011;10608;42.600;23.398;2023-08-01T13:09:47;13.63;;;12.93;;
20896;SDS011;10608;42.600;23.398;2023-08-01T13:12:13;12.23;;;11.37;;
20896;SDS011;10608;42.600;23.398;2023-08-01T13:14:38;13.67;;;12.97;;
20896;SDS011;10608;42.600;23.398;2023-08-01T13:17:03;14.00;;;13.23;;
20896;SDS011;10608;42.600;23.398;2023-08-01T13:19:29;14.40;;;13.60;;
20896;SDS011;10608;42.600;23.398;2023-08-01T13:21:55;13.20;;;12.30;;
20896;SDS011;10608;42.600;23.398;2023-08-01T13:24:20;10.77;;;10.27;;
20896;SDS011;10608;42.600;23.398;2023-08-01T13:26:45;12.80;;;12.03;;
20896;SDS011;10608;42.600;23.398;2023-08-01T13:29:11;11.87;;;11.27;;
20896;SDS011;10608;42.600;23.398;2023-08-01T13:31:36;17.10;;;16.30;;
20896;SDS011;10608;42.600;23.398;2023-08-01T13:34:02;19.20;;;18.20;;
20896;SDS011;10608;42.600;23.398;2023-08-01T13:36:27;17.17;;;16.27;;
20896;SDS011;10608;42.600;23.398;2023-08-01T13:38:52;16.70;;;15.80;;
20896;SDS011;10608;42.600;23.398;2023-08-01T13:41:18;16.00;;;15.20;;
20896;SDS011;10608;42.600;23.398;2023-08-01T13:43:43;15.23;;;14.40;;
20896;SDS011;10608;42.600;23.398;2023-08-01T13:46:12;14.67;;;13.87;;
20896;SDS011;10608;42.600;23.398;2023-08-01T13:48:39;15.13;;;14.13;;
20896;SDS011;10608;42.600;23.398;2023-08-01T13:51:05;15.03;;;14.07;;
20896;SDS011;10608;42.600;23.398;2023-08-01T13:53:30;15.37;;;14.63;;
20896;SDS011;10608;42.600;23.398;2023-08-01T13:55:56;14.13;;;13.50;;
20896;SDS011;10608;42.600;23.398;2023-08-01T13:58:21;14.90;;;14.17;;
20896;SDS011;10608;42.600;23.398;2023-08-01T14:00:46;15.83;;;15.03;;
20896;SDS011;10608;42.600;23.398;2023-08-01T14:03:12;13.43;;;12.73;;
20896;SDS011;10608;42.600;23.398;2023-08-01T14:05:37;13.93;;;13.20;;
20896;SDS011;10608;42.600;23.398;2023-08-01T14:08:02;15.73;;;14.93;;
20896;SDS011;10608;42.600;23.398;2023-08-01T14:10:28;16.17;;;15.37;;